sensor_id;sensor_type;location;lat;lon;timestamp;temperature;humidity
11009;DHT22;5557;51.670;7.788;2022-09-17T00:01:06;10.50;99.90
11009;DHT22;5557;51.670;7.788;2022-09-17T00:03:34;10.50;99.90
11009;DHT22;5557;51.670;7.788;2022-09-17T00:06:03;10.50;99.90
11009;DHT22;5557;51.670;7.788;2022-09-17T00:08:32;10.40;99.90
11009;DHT22;5557;51.670;7.788;2022-09-17T00:11:06;10.50;99.90
11009;DHT22;5557;51.670;7.788;2022-09-17T00:13:34;10.50;99.90
11009;DHT22;5557;51.670;7.788;2022-09-17T00:16:01;10.50;99.90
11009;DHT22;5557;51.670;7.788;2022-09-17T00:18:28;10.50;99.90
11009;DHT22;5557;51.670;7.788;2022-09-17T00:20:55;10.40;99.90
11009;DHT22;5557;51.670;7.788;2022-09-17T00:23:22;10.40;99.90
11009;DHT22;5557;51.670;7.788;2022-09-17T00:25:49;10.30;99.90
11009;DHT22;5557;51.670;7.788;2022-09-17T00:28:16;10.40;99.90
11009;DHT22;5557;51.670;7.788;2022-09-17T00:30:44;10.30;99.90
11009;DHT22;5557;51.670;7.788;2022-09-17T00:33:16;10.30;99.90
11009;DHT22;5557;51.670;7.788;2022-09-17T00:35:43;10.30;99.90
11009;DHT22;5557;51.670;7.788;2022-09-17T00:38:10;10.30;99.90
11009;DHT22;5557;51.670;7.788;2022-09-17T00:40:37;10.40;99.90
11009;DHT22;5557;51.670;7.788;2022-09-17T00:43:09;10.40;99.90
11009;DHT22;5557;51.670;7.788;2022-09-17T00:45:37;10.30;99.90
11009;DHT22;5557;51.670;7.788;2022-09-17T00:48:06;10.30;99.90
11009;DHT22;5557;51.670;7.788;2022-09-17T00:50:42;10.30;99.90
11009;DHT22;5557;51.670;7.788;2022-09-17T00:53:13;10.30;99.90
11009;DHT22;5557;51.670;7.788;2022-09-17T00:56:13;10.30;99.90
11009;DHT22;5557;51.670;7.788;2022-09-17T00:58:42;10.30;99.90
11009;DHT22;5557;51.670;7.788;2022-09-17T01:01:09;10.30;99.90
11009;DHT22;5557;51.670;7.788;2022-09-17T01:03:36;10.30;99.90
11009;DHT22;5557;51.670;7.788;2022-09-17T01:06:32;10.40;99.90
11009;DHT22;5557;51.670;7.788;2022-09-17T01:21:45;10.30;99.90
11009;DHT22;5557;51.670;7.788;2022-09-17T01:24:49;10.30;99.90
11009;DHT22;5557;51.670;7.788;2022-09-17T01:27:43;10.30;99.90
11009;DHT22;5557;51.670;7.788;2022-09-17T01:30:38;10.30;99.90
11009;DHT22;5557;51.670;7.788;2022-09-17T01:33:31;10.30;99.90
11009;DHT22;5557;51.670;7.788;2022-09-17T01:36:26;10.20;99.90
11009;DHT22;5557;51.670;7.788;2022-09-17T01:39:22;10.20;99.90
11009;DHT22;5557;51.670;7.788;2022-09-17T01:45:15;10.20;99.90
11009;DHT22;5557;51.670;7.788;2022-09-17T01:47:51;10.20;99.90
11009;DHT22;5557;51.670;7.788;2022-09-17T01:50:36;10.20;99.90
11009;DHT22;5557;51.670;7.788;2022-09-17T01:53:09;10.20;99.90
11009;DHT22;5557;51.670;7.788;2022-09-17T01:55:38;10.10;99.90
11009;DHT22;5557;51.670;7.788;2022-09-17T01:58:17;10.10;99.90
11009;DHT22;5557;51.670;7.788;2022-09-17T02:00:50;10.10;99.90
11009;DHT22;5557;51.670;7.788;2022-09-17T02:03:29;10.10;99.90
11009;DHT22;5557;51.670;7.788;2022-09-17T02:06:07;10.10;99.90
11009;DHT22;5557;51.670;7.788;2022-09-17T02:09:13;10.10;99.90
11009;DHT22;5557;51.670;7.788;2022-09-17T02:11:45;10.00;99.90
11009;DHT22;5557;51.670;7.788;2022-09-17T02:14:19;10.00;99.90
11009;DHT22;5557;51.670;7.788;2022-09-17T02:16:51;9.90;99.90
11009;DHT22;5557;51.670;7.788;2022-09-17T02:19:29;9.80;99.90
11009;DHT22;5557;51.670;7.788;2022-09-17T02:22:27;9.80;99.90
11009;DHT22;5557;51.670;7.788;2022-09-17T02:25:04;9.70;99.90
11009;DHT22;5557;51.670;7.788;2022-09-17T02:30:25;9.70;99.90
11009;DHT22;5557;51.670;7.788;2022-09-17T02:32:53;9.60;99.90
11009;DHT22;5557;51.670;7.788;2022-09-17T02:35:20;9.60;99.90
11009;DHT22;5557;51.670;7.788;2022-09-17T02:37:48;9.50;99.90
11009;DHT22;5557;51.670;7.788;2022-09-17T02:40:16;9.50;99.90
11009;DHT22;5557;51.670;7.788;2022-09-17T02:43:28;9.50;99.90
11009;DHT22;5557;51.670;7.788;2022-09-17T02:52:31;9.40;99.90
11009;DHT22;5557;51.670;7.788;2022-09-17T02:55:01;9.30;99.90
11009;DHT22;5557;51.670;7.788;2022-09-17T02:57:44;9.30;99.90
11009;DHT22;5557;51.670;7.788;2022-09-17T03:00:18;9.30;99.90
11009;DHT22;5557;51.670;7.788;2022-09-17T03:03:07;9.30;99.90
11009;DHT22;5557;51.670;7.788;2022-09-17T03:05:37;9.30;99.90
11009;DHT22;5557;51.670;7.788;2022-09-17T03:08:07;9.30;99.90
11009;DHT22;5557;51.670;7.788;2022-09-17T03:10:38;9.30;99.90
11009;DHT22;5557;51.670;7.788;2022-09-17T03:13:06;9.30;99.90
11009;DHT22;5557;51.670;7.788;2022-09-17T03:15:33;9.30;99.90
11009;DHT22;5557;51.670;7.788;2022-09-17T03:18:00;9.30;99.90
11009;DHT22;5557;51.670;7.788;2022-09-17T03:20:27;9.30;99.90
11009;DHT22;5557;51.670;7.788;2022-09-17T03:22:54;9.30;99.90
11009;DHT22;5557;51.670;7.788;2022-09-17T03:25:21;9.30;99.90
11009;DHT22;5557;51.670;7.788;2022-09-17T03:27:48;9.30;99.90
11009;DHT22;5557;51.670;7.788;2022-09-17T03:30:15;9.30;99.90
11009;DHT22;5557;51.670;7.788;2022-09-17T03:32:42;9.20;99.90
11009;DHT22;5557;51.670;7.788;2022-09-17T03:35:09;9.20;99.90
11009;DHT22;5557;51.670;7.788;2022-09-17T03:37:36;9.20;99.90
11009;DHT22;5557;51.670;7.788;2022-09-17T03:40:03;9.10;99.90
11009;DHT22;5557;51.670;7.788;2022-09-17T03:42:31;9.10;99.90
11009;DHT22;5557;51.670;7.788;2022-09-17T03:44:57;9.10;99.90
11009;DHT22;5557;51.670;7.788;2022-09-17T03:47:24;9.10;99.90
11009;DHT22;5557;51.670;7.788;2022-09-17T03:49:51;9.10;99.90
11009;DHT22;5557;51.670;7.788;2022-09-17T03:52:18;9.10;99.90
11009;DHT22;5557;51.670;7.788;2022-09-17T03:54:45;9.10;99.90
11009;DHT22;5557;51.670;7.788;2022-09-17T03:57:12;9.10;99.90
11009;DHT22;5557;51.670;7.788;2022-09-17T03:59:39;9.10;99.90
11009;DHT22;5557;51.670;7.788;2022-09-17T04:02:06;9.00;99.90
11009;DHT22;5557;51.670;7.788;2022-09-17T04:04:33;9.00;99.90
11009;DHT22;5557;51.670;7.788;2022-09-17T04:07:00;9.10;99.90
11009;DHT22;5557;51.670;7.788;2022-09-17T04:09:27;9.00;99.90
11009;DHT22;5557;51.670;7.788;2022-09-17T04:11:55;9.10;99.90
11009;DHT22;5557;51.670;7.788;2022-09-17T04:14:22;9.10;99.90
11009;DHT22;5557;51.670;7.788;2022-09-17T04:16:49;9.10;99.90
11009;DHT22;5557;51.670;7.788;2022-09-17T04:19:16;9.10;99.90
11009;DHT22;5557;51.670;7.788;2022-09-17T04:21:43;9.10;99.90
11009;DHT22;5557;51.670;7.788;2022-09-17T04:24:10;9.10;99.90
11009;DHT22;5557;51.670;7.788;2022-09-17T04:26:37;9.10;99.90
11009;DHT22;5557;51.670;7.788;2022-09-17T04:29:04;9.00;99.90
11009;DHT22;5557;51.670;7.788;2022-09-17T04:31:31;9.00;99.90
11009;DHT22;5557;51.670;7.788;2022-09-17T04:33:58;9.10;99.90
11009;DHT22;5557;51.670;7.788;2022-09-17T04:36:25;9.10;99.90
11009;DHT22;5557;51.670;7.788;2022-09-17T04:38:52;9.10;99.90
11009;DHT22;5557;51.670;7.788;2022-09-17T04:41:19;9.10;99.90
11009;DHT22;5557;51.670;7.788;2022-09-17T04:43:46;9.20;99.90
11009;DHT22;5557;51.670;7.788;2022-09-17T04:46:13;9.20;99.90
11009;DHT22;5557;51.670;7.788;2022-09-17T04:48:42;9.10;99.90
11009;DHT22;5557;51.670;7.788;2022-09-17T04:51:09;9.20;99.90
11009;DHT22;5557;51.670;7.788;2022-09-17T04:53:36;9.10;99.90
11009;DHT22;5557;51.670;7.788;2022-09-17T04:56:04;9.10;99.90
11009;DHT22;5557;51.670;7.788;2022-09-17T04:58:31;9.20;99.90
11009;DHT22;5557;51.670;7.788;2022-09-17T05:00:58;9.20;99.90
11009;DHT22;5557;51.670;7.788;2022-09-17T05:03:25;9.20;99.90
11009;DHT22;5557;51.670;7.788;2022-09-17T05:05:52;9.20;99.90
11009;DHT22;5557;51.670;7.788;2022-09-17T05:08:19;9.30;99.90
11009;DHT22;5557;51.670;7.788;2022-09-17T05:10:50;9.30;99.90
11009;DHT22;5557;51.670;7.788;2022-09-17T05:13:17;9.30;99.90
11009;DHT22;5557;51.670;7.788;2022-09-17T05:15:44;9.30;99.90
11009;DHT22;5557;51.670;7.788;2022-09-17T05:18:11;9.30;99.90
11009;DHT22;5557;51.670;7.788;2022-09-17T05:20:38;9.30;99.90
11009;DHT22;5557;51.670;7.788;2022-09-17T05:23:06;9.40;99.90
11009;DHT22;5557;51.670;7.788;2022-09-17T05:25:33;9.40;99.90
11009;DHT22;5557;51.670;7.788;2022-09-17T05:28:00;9.40;99.90
11009;DHT22;5557;51.670;7.788;2022-09-17T05:30:27;9.50;99.90
11009;DHT22;5557;51.670;7.788;2022-09-17T05:33:05;9.50;99.90
11009;DHT22;5557;51.670;7.788;2022-09-17T05:35:33;9.60;99.90
11009;DHT22;5557;51.670;7.788;2022-09-17T05:38:04;9.60;99.90
11009;DHT22;5557;51.670;7.788;2022-09-17T05:40:31;9.70;99.90
11009;DHT22;5557;51.670;7.788;2022-09-17T05:42:59;9.80;99.90
11009;DHT22;5557;51.670;7.788;2022-09-17T05:45:27;9.90;99.90
11009;DHT22;5557;51.670;7.788;2022-09-17T05:47:59;10.10;99.90
11009;DHT22;5557;51.670;7.788;2022-09-17T05:50:27;10.20;99.90
11009;DHT22;5557;51.670;7.788;2022-09-17T05:52:55;10.40;99.90
11009;DHT22;5557;51.670;7.788;2022-09-17T05:55:23;10.50;97.80
11009;DHT22;5557;51.670;7.788;2022-09-17T05:57:50;10.70;96.60
11009;DHT22;5557;51.670;7.788;2022-09-17T06:00:17;10.90;93.20
11009;DHT22;5557;51.670;7.788;2022-09-17T06:02:44;10.90;91.20
11009;DHT22;5557;51.670;7.788;2022-09-17T06:05:11;11.20;91.60
11009;DHT22;5557;51.670;7.788;2022-09-17T06:07:38;11.60;86.70
11009;DHT22;5557;51.670;7.788;2022-09-17T06:10:06;12.10;75.80
11009;DHT22;5557;51.670;7.788;2022-09-17T06:12:34;12.40;61.20
11009;DHT22;5557;51.670;7.788;2022-09-17T06:15:04;12.70;59.50
11009;DHT22;5557;51.670;7.788;2022-09-17T06:17:33;13.10;56.50
11009;DHT22;5557;51.670;7.788;2022-09-17T06:20:02;13.50;47.70
11009;DHT22;5557;51.670;7.788;2022-09-17T06:22:30;13.80;44.90
11009;DHT22;5557;51.670;7.788;2022-09-17T06:24:57;13.80;38.20
11009;DHT22;5557;51.670;7.788;2022-09-17T06:27:30;13.30;42.00
11009;DHT22;5557;51.670;7.788;2022-09-17T06:29:57;12.70;53.50
11009;DHT22;5557;51.670;7.788;2022-09-17T06:32:24;12.20;59.40
11009;DHT22;5557;51.670;7.788;2022-09-17T06:34:51;11.90;67.90
11009;DHT22;5557;51.670;7.788;2022-09-17T06:37:18;11.80;71.60
11009;DHT22;5557;51.670;7.788;2022-09-17T06:39:45;11.60;72.10
11009;DHT22;5557;51.670;7.788;2022-09-17T06:42:12;11.60;72.90
11009;DHT22;5557;51.670;7.788;2022-09-17T06:44:38;11.60;75.50
11009;DHT22;5557;51.670;7.788;2022-09-17T06:47:06;11.70;68.00
11009;DHT22;5557;51.670;7.788;2022-09-17T06:49:33;11.70;63.40
11009;DHT22;5557;51.670;7.788;2022-09-17T06:52:00;11.70;66.30
11009;DHT22;5557;51.670;7.788;2022-09-17T06:54:27;11.60;66.30
11009;DHT22;5557;51.670;7.788;2022-09-17T06:56:54;11.50;67.80
11009;DHT22;5557;51.670;7.788;2022-09-17T06:59:21;11.50;68.40
11009;DHT22;5557;51.670;7.788;2022-09-17T07:01:48;11.70;63.90
11009;DHT22;5557;51.670;7.788;2022-09-17T07:04:15;11.80;60.20
11009;DHT22;5557;51.670;7.788;2022-09-17T07:06:44;11.80;61.30
11009;DHT22;5557;51.670;7.788;2022-09-17T07:09:11;11.90;57.30
11009;DHT22;5557;51.670;7.788;2022-09-17T07:11:38;12.20;51.70
11009;DHT22;5557;51.670;7.788;2022-09-17T07:14:05;12.80;46.40
11009;DHT22;5557;51.670;7.788;2022-09-17T07:16:33;13.70;32.80
11009;DHT22;5557;51.670;7.788;2022-09-17T07:19:02;14.40;25.20
11009;DHT22;5557;51.670;7.788;2022-09-17T07:21:29;15.10;19.90
11009;DHT22;5557;51.670;7.788;2022-09-17T07:23:57;15.20;14.20
11009;DHT22;5557;51.670;7.788;2022-09-17T07:26:24;15.30;11.80
11009;DHT22;5557;51.670;7.788;2022-09-17T07:28:51;15.30;12.00
11009;DHT22;5557;51.670;7.788;2022-09-17T07:31:18;15.00;16.50
11009;DHT22;5557;51.670;7.788;2022-09-17T07:33:45;15.20;18.90
11009;DHT22;5557;51.670;7.788;2022-09-17T07:36:14;15.70;10.80
11009;DHT22;5557;51.670;7.788;2022-09-17T07:38:43;15.70;7.50
11009;DHT22;5557;51.670;7.788;2022-09-17T07:41:12;15.90;6.50
11009;DHT22;5557;51.670;7.788;2022-09-17T07:43:40;15.90;3.60
11009;DHT22;5557;51.670;7.788;2022-09-17T07:46:13;15.60;4.80
11009;DHT22;5557;51.670;7.788;2022-09-17T07:48:44;15.00;8.60
11009;DHT22;5557;51.670;7.788;2022-09-17T07:51:20;14.60;10.00
11009;DHT22;5557;51.670;7.788;2022-09-17T07:53:51;14.30;13.80
11009;DHT22;5557;51.670;7.788;2022-09-17T07:56:19;14.40;12.30
11009;DHT22;5557;51.670;7.788;2022-09-17T07:58:46;14.80;12.50
11009;DHT22;5557;51.670;7.788;2022-09-17T08:01:14;15.30;6.30
11009;DHT22;5557;51.670;7.788;2022-09-17T08:03:52;15.30;8.60
11009;DHT22;5557;51.670;7.788;2022-09-17T08:06:22;15.50;5.50
11009;DHT22;5557;51.670;7.788;2022-09-17T08:08:51;15.90;2.60
11009;DHT22;5557;51.670;7.788;2022-09-17T08:11:20;16.10;1.00
11009;DHT22;5557;51.670;7.788;2022-09-17T08:14:12;16.10;1.00
11009;DHT22;5557;51.670;7.788;2022-09-17T08:16:40;16.20;1.00
11009;DHT22;5557;51.670;7.788;2022-09-17T08:19:07;16.60;1.00
11009;DHT22;5557;51.670;7.788;2022-09-17T08:21:36;17.10;1.00
11009;DHT22;5557;51.670;7.788;2022-09-17T08:24:04;17.40;1.00
11009;DHT22;5557;51.670;7.788;2022-09-17T08:26:30;17.10;1.00
11009;DHT22;5557;51.670;7.788;2022-09-17T08:28:58;16.80;1.00
11009;DHT22;5557;51.670;7.788;2022-09-17T08:31:26;17.10;1.00
11009;DHT22;5557;51.670;7.788;2022-09-17T08:34:06;17.40;1.00
11009;DHT22;5557;51.670;7.788;2022-09-17T08:36:35;16.90;1.00
11009;DHT22;5557;51.670;7.788;2022-09-17T08:39:02;17.20;1.00
11009;DHT22;5557;51.670;7.788;2022-09-17T08:44:55;17.50;1.00
11009;DHT22;5557;51.670;7.788;2022-09-17T08:47:38;18.10;1.00
11009;DHT22;5557;51.670;7.788;2022-09-17T08:50:30;18.10;1.00
11009;DHT22;5557;51.670;7.788;2022-09-17T08:54:07;17.90;1.00
11009;DHT22;5557;51.670;7.788;2022-09-17T08:56:11;18.50;1.00
11009;DHT22;5557;51.670;7.788;2022-09-17T08:59:19;18.10;1.00
11009;DHT22;5557;51.670;7.788;2022-09-17T09:01:59;17.90;1.00
11009;DHT22;5557;51.670;7.788;2022-09-17T09:04:57;17.50;1.00
11009;DHT22;5557;51.670;7.788;2022-09-17T09:07:40;17.20;1.00
11009;DHT22;5557;51.670;7.788;2022-09-17T09:10:19;17.20;1.00
11009;DHT22;5557;51.670;7.788;2022-09-17T09:12:50;17.10;1.00
11009;DHT22;5557;51.670;7.788;2022-09-17T09:16:01;16.80;1.00
11009;DHT22;5557;51.670;7.788;2022-09-17T09:18:29;16.60;1.00
11009;DHT22;5557;51.670;7.788;2022-09-17T09:21:29;16.50;1.00
11009;DHT22;5557;51.670;7.788;2022-09-17T09:24:08;16.90;1.00
11009;DHT22;5557;51.670;7.788;2022-09-17T09:30:04;17.50;1.00
11009;DHT22;5557;51.670;7.788;2022-09-17T09:33:13;16.80;1.00
11009;DHT22;5557;51.670;7.788;2022-09-17T09:35:33;17.40;1.00
11009;DHT22;5557;51.670;7.788;2022-09-17T09:41:31;18.50;1.00
11009;DHT22;5557;51.670;7.788;2022-09-17T09:44:06;19.10;1.00
11009;DHT22;5557;51.670;7.788;2022-09-17T09:47:14;18.50;1.00
11009;DHT22;5557;51.670;7.788;2022-09-17T09:50:14;18.30;1.00
11009;DHT22;5557;51.670;7.788;2022-09-17T09:56:05;17.40;1.00
11009;DHT22;5557;51.670;7.788;2022-09-17T09:58:37;17.20;1.00
11009;DHT22;5557;51.670;7.788;2022-09-17T10:01:17;16.80;1.00
11009;DHT22;5557;51.670;7.788;2022-09-17T10:03:52;16.50;1.00
11009;DHT22;5557;51.670;7.788;2022-09-17T10:06:21;16.30;1.00
11009;DHT22;5557;51.670;7.788;2022-09-17T10:09:11;16.00;1.00
11009;DHT22;5557;51.670;7.788;2022-09-17T10:11:40;15.80;1.00
11009;DHT22;5557;51.670;7.788;2022-09-17T10:14:35;15.60;1.00
11009;DHT22;5557;51.670;7.788;2022-09-17T10:17:24;15.70;1.00
11009;DHT22;5557;51.670;7.788;2022-09-17T10:20:24;15.80;1.00
11009;DHT22;5557;51.670;7.788;2022-09-17T10:22:52;16.60;1.00
11009;DHT22;5557;51.670;7.788;2022-09-17T10:25:30;16.30;1.00
11009;DHT22;5557;51.670;7.788;2022-09-17T10:28:02;15.00;1.00
11009;DHT22;5557;51.670;7.788;2022-09-17T10:30:29;14.10;8.20
11009;DHT22;5557;51.670;7.788;2022-09-17T10:33:20;13.30;20.00
11009;DHT22;5557;51.670;7.788;2022-09-17T10:38:31;12.80;26.20
11009;DHT22;5557;51.670;7.788;2022-09-17T10:41:20;13.30;27.80
11009;DHT22;5557;51.670;7.788;2022-09-17T10:43:49;13.70;34.30
11009;DHT22;5557;51.670;7.788;2022-09-17T10:46:24;14.30;26.00
11009;DHT22;5557;51.670;7.788;2022-09-17T10:49:10;14.90;18.60
11009;DHT22;5557;51.670;7.788;2022-09-17T10:51:38;15.40;17.10
11009;DHT22;5557;51.670;7.788;2022-09-17T10:54:18;15.60;6.80
11009;DHT22;5557;51.670;7.788;2022-09-17T10:56:54;15.80;9.70
11009;DHT22;5557;51.670;7.788;2022-09-17T11:00:08;16.30;9.90
11009;DHT22;5557;51.670;7.788;2022-09-17T11:07:06;16.10;1.00
11009;DHT22;5557;51.670;7.788;2022-09-17T11:18:58;14.50;11.20
11009;DHT22;5557;51.670;7.788;2022-09-17T11:21:42;15.00;3.60
11009;DHT22;5557;51.670;7.788;2022-09-17T11:37:01;16.50;1.00
11009;DHT22;5557;51.670;7.788;2022-09-17T11:39:15;16.70;1.00
11009;DHT22;5557;51.670;7.788;2022-09-17T11:41:48;17.20;1.00
11009;DHT22;5557;51.670;7.788;2022-09-17T11:47:53;17.30;1.00
11009;DHT22;5557;51.670;7.788;2022-09-17T11:50:31;17.80;1.00
11009;DHT22;5557;51.670;7.788;2022-09-17T11:59:03;18.00;1.00
11009;DHT22;5557;51.670;7.788;2022-09-17T12:01:50;17.30;1.00
11009;DHT22;5557;51.670;7.788;2022-09-17T12:09:52;18.00;1.00
11009;DHT22;5557;51.670;7.788;2022-09-17T12:12:23;18.50;1.00
11009;DHT22;5557;51.670;7.788;2022-09-17T12:15:17;18.80;1.00
11009;DHT22;5557;51.670;7.788;2022-09-17T12:18:15;18.40;1.00
11009;DHT22;5557;51.670;7.788;2022-09-17T12:21:00;18.80;1.00
11009;DHT22;5557;51.670;7.788;2022-09-17T12:29:32;18.40;1.00
11009;DHT22;5557;51.670;7.788;2022-09-17T12:43:06;18.10;1.00
11009;DHT22;5557;51.670;7.788;2022-09-17T12:56:36;18.70;1.00
11009;DHT22;5557;51.670;7.788;2022-09-17T12:59:16;19.50;1.00
11009;DHT22;5557;51.670;7.788;2022-09-17T13:02:25;19.50;1.00
11009;DHT22;5557;51.670;7.788;2022-09-17T13:12:25;15.20;24.20
11009;DHT22;5557;51.670;7.788;2022-09-17T13:14:59;13.80;37.60
11009;DHT22;5557;51.670;7.788;2022-09-17T13:17:56;12.60;46.40
11009;DHT22;5557;51.670;7.788;2022-09-17T13:21:22;11.80;56.60
11009;DHT22;5557;51.670;7.788;2022-09-17T13:23:51;11.70;88.60
11009;DHT22;5557;51.670;7.788;2022-09-17T13:26:33;11.80;90.00
11009;DHT22;5557;51.670;7.788;2022-09-17T13:29:00;11.90;90.70
11009;DHT22;5557;51.670;7.788;2022-09-17T13:34:30;12.00;88.50
11009;DHT22;5557;51.670;7.788;2022-09-17T13:36:59;12.10;91.50
11009;DHT22;5557;51.670;7.788;2022-09-17T13:39:38;12.10;89.60
11009;DHT22;5557;51.670;7.788;2022-09-17T13:44:43;12.30;85.20
11009;DHT22;5557;51.670;7.788;2022-09-17T13:47:21;12.40;76.50
11009;DHT22;5557;51.670;7.788;2022-09-17T13:49:53;12.40;78.60
11009;DHT22;5557;51.670;7.788;2022-09-17T13:52:48;12.60;80.50
11009;DHT22;5557;51.670;7.788;2022-09-17T13:55:35;12.80;63.90
11009;DHT22;5557;51.670;7.788;2022-09-17T13:58:29;13.80;32.60
11009;DHT22;5557;51.670;7.788;2022-09-17T14:01:12;14.70;20.10
11009;DHT22;5557;51.670;7.788;2022-09-17T14:03:52;14.90;18.30
11009;DHT22;5557;51.670;7.788;2022-09-17T14:06:46;15.60;13.00
11009;DHT22;5557;51.670;7.788;2022-09-17T14:09:56;15.90;6.30
11009;DHT22;5557;51.670;7.788;2022-09-17T14:12:49;15.60;3.30
11009;DHT22;5557;51.670;7.788;2022-09-17T14:15:55;15.30;4.50
11009;DHT22;5557;51.670;7.788;2022-09-17T14:18:55;15.70;5.60
11009;DHT22;5557;51.670;7.788;2022-09-17T14:21:30;15.60;2.20
11009;DHT22;5557;51.670;7.788;2022-09-17T14:24:00;15.40;2.10
11009;DHT22;5557;51.670;7.788;2022-09-17T14:26:47;14.90;4.30
11009;DHT22;5557;51.670;7.788;2022-09-17T14:32:39;14.10;12.40
11009;DHT22;5557;51.670;7.788;2022-09-17T14:35:44;14.00;15.40
11009;DHT22;5557;51.670;7.788;2022-09-17T14:38:45;13.80;17.30
11009;DHT22;5557;51.670;7.788;2022-09-17T14:41:25;13.60;22.80
11009;DHT22;5557;51.670;7.788;2022-09-17T14:44:06;13.50;22.90
11009;DHT22;5557;51.670;7.788;2022-09-17T14:46:48;13.40;24.50
11009;DHT22;5557;51.670;7.788;2022-09-17T14:49:28;13.40;24.30
11009;DHT22;5557;51.670;7.788;2022-09-17T14:51:57;13.40;27.50
11009;DHT22;5557;51.670;7.788;2022-09-17T14:54:28;13.40;24.70
11009;DHT22;5557;51.670;7.788;2022-09-17T14:57:22;13.30;23.70
11009;DHT22;5557;51.670;7.788;2022-09-17T14:59:56;13.30;25.50
11009;DHT22;5557;51.670;7.788;2022-09-17T15:02:55;13.40;27.20
11009;DHT22;5557;51.670;7.788;2022-09-17T15:05:30;13.60;21.90
11009;DHT22;5557;51.670;7.788;2022-09-17T15:08:13;13.60;19.10
11009;DHT22;5557;51.670;7.788;2022-09-17T15:11:06;13.60;17.80
11009;DHT22;5557;51.670;7.788;2022-09-17T15:13:41;13.50;16.20
11009;DHT22;5557;51.670;7.788;2022-09-17T15:16:37;13.50;18.10
11009;DHT22;5557;51.670;7.788;2022-09-17T15:19:04;13.50;18.70
11009;DHT22;5557;51.670;7.788;2022-09-17T15:21:51;13.50;16.40
11009;DHT22;5557;51.670;7.788;2022-09-17T15:24:48;13.50;15.40
11009;DHT22;5557;51.670;7.788;2022-09-17T15:27:21;13.40;13.60
11009;DHT22;5557;51.670;7.788;2022-09-17T15:32:32;13.40;13.00
11009;DHT22;5557;51.670;7.788;2022-09-17T15:35:32;13.40;14.20
11009;DHT22;5557;51.670;7.788;2022-09-17T15:38:01;13.50;14.60
11009;DHT22;5557;51.670;7.788;2022-09-17T15:40:48;13.50;14.30
11009;DHT22;5557;51.670;7.788;2022-09-17T15:43:33;13.40;15.50
11009;DHT22;5557;51.670;7.788;2022-09-17T15:46:30;13.40;18.40
11009;DHT22;5557;51.670;7.788;2022-09-17T15:49:01;13.30;17.30
11009;DHT22;5557;51.670;7.788;2022-09-17T15:51:30;13.20;17.30
11009;DHT22;5557;51.670;7.788;2022-09-17T15:54:05;13.20;16.80
11009;DHT22;5557;51.670;7.788;2022-09-17T15:56:37;13.10;17.30
11009;DHT22;5557;51.670;7.788;2022-09-17T15:59:31;13.00;20.30
11009;DHT22;5557;51.670;7.788;2022-09-17T16:02:00;12.90;19.30
11009;DHT22;5557;51.670;7.788;2022-09-17T16:04:33;12.90;21.20
11009;DHT22;5557;51.670;7.788;2022-09-17T16:07:27;12.90;23.00
11009;DHT22;5557;51.670;7.788;2022-09-17T16:09:55;12.80;22.10
11009;DHT22;5557;51.670;7.788;2022-09-17T16:12:26;12.70;17.50
11009;DHT22;5557;51.670;7.788;2022-09-17T16:14:56;12.50;23.00
11009;DHT22;5557;51.670;7.788;2022-09-17T16:17:53;12.40;26.30
11009;DHT22;5557;51.670;7.788;2022-09-17T16:20:23;12.20;24.20
11009;DHT22;5557;51.670;7.788;2022-09-17T16:22:51;12.10;24.80
11009;DHT22;5557;51.670;7.788;2022-09-17T16:25:22;12.00;27.00
11009;DHT22;5557;51.670;7.788;2022-09-17T16:28:05;12.00;30.00
11009;DHT22;5557;51.670;7.788;2022-09-17T16:30:35;12.00;36.50
11009;DHT22;5557;51.670;7.788;2022-09-17T16:33:03;12.00;38.30
11009;DHT22;5557;51.670;7.788;2022-09-17T16:35:32;12.00;40.30
11009;DHT22;5557;51.670;7.788;2022-09-17T16:37:59;12.00;41.10
11009;DHT22;5557;51.670;7.788;2022-09-17T16:40:26;12.00;40.10
11009;DHT22;5557;51.670;7.788;2022-09-17T16:42:54;12.10;40.30
11009;DHT22;5557;51.670;7.788;2022-09-17T16:45:21;12.20;37.80
11009;DHT22;5557;51.670;7.788;2022-09-17T16:47:54;12.20;37.80
11009;DHT22;5557;51.670;7.788;2022-09-17T16:50:21;12.30;35.10
11009;DHT22;5557;51.670;7.788;2022-09-17T16:52:48;12.40;29.90
11009;DHT22;5557;51.670;7.788;2022-09-17T16:55:16;12.50;25.90
11009;DHT22;5557;51.670;7.788;2022-09-17T16:57:43;12.50;23.00
11009;DHT22;5557;51.670;7.788;2022-09-17T17:00:14;12.40;22.50
11009;DHT22;5557;51.670;7.788;2022-09-17T17:02:43;12.40;22.40
11009;DHT22;5557;51.670;7.788;2022-09-17T17:05:10;12.30;23.10
11009;DHT22;5557;51.670;7.788;2022-09-17T17:07:38;12.20;25.60
11009;DHT22;5557;51.670;7.788;2022-09-17T17:10:05;12.20;26.50
11009;DHT22;5557;51.670;7.788;2022-09-17T17:12:35;12.10;27.80
11009;DHT22;5557;51.670;7.788;2022-09-17T17:15:03;12.20;27.90
11009;DHT22;5557;51.670;7.788;2022-09-17T17:17:32;12.20;27.10
11009;DHT22;5557;51.670;7.788;2022-09-17T17:20:03;12.20;27.90
11009;DHT22;5557;51.670;7.788;2022-09-17T17:22:34;12.20;27.70
11009;DHT22;5557;51.670;7.788;2022-09-17T17:25:04;12.10;28.00
11009;DHT22;5557;51.670;7.788;2022-09-17T17:27:32;12.00;27.70
11009;DHT22;5557;51.670;7.788;2022-09-17T17:29:59;12.00;27.70
11009;DHT22;5557;51.670;7.788;2022-09-17T17:32:30;12.00;29.10
11009;DHT22;5557;51.670;7.788;2022-09-17T17:34:57;12.00;29.10
11009;DHT22;5557;51.670;7.788;2022-09-17T17:37:25;11.90;28.60
11009;DHT22;5557;51.670;7.788;2022-09-17T17:39:52;11.90;27.60
11009;DHT22;5557;51.670;7.788;2022-09-17T17:42:20;11.90;27.60
11009;DHT22;5557;51.670;7.788;2022-09-17T17:44:48;11.80;27.60
11009;DHT22;5557;51.670;7.788;2022-09-17T17:47:15;11.80;29.00
11009;DHT22;5557;51.670;7.788;2022-09-17T17:49:42;11.70;30.50
11009;DHT22;5557;51.670;7.788;2022-09-17T17:52:10;11.60;31.60
11009;DHT22;5557;51.670;7.788;2022-09-17T17:54:37;11.60;32.90
11009;DHT22;5557;51.670;7.788;2022-09-17T17:57:04;11.50;33.40
11009;DHT22;5557;51.670;7.788;2022-09-17T17:59:31;11.50;34.20
11009;DHT22;5557;51.670;7.788;2022-09-17T18:01:59;11.40;37.00
11009;DHT22;5557;51.670;7.788;2022-09-17T18:04:28;11.40;37.00
11009;DHT22;5557;51.670;7.788;2022-09-17T18:06:55;11.40;38.90
11009;DHT22;5557;51.670;7.788;2022-09-17T18:09:22;11.30;38.70
11009;DHT22;5557;51.670;7.788;2022-09-17T18:11:49;11.20;39.90
11009;DHT22;5557;51.670;7.788;2022-09-17T18:14:16;11.10;39.90
11009;DHT22;5557;51.670;7.788;2022-09-17T18:16:43;11.20;37.50
11009;DHT22;5557;51.670;7.788;2022-09-17T18:19:10;11.20;37.60
11009;DHT22;5557;51.670;7.788;2022-09-17T18:21:37;11.20;36.90
11009;DHT22;5557;51.670;7.788;2022-09-17T18:24:04;11.10;36.50
11009;DHT22;5557;51.670;7.788;2022-09-17T18:26:31;11.10;36.00
11009;DHT22;5557;51.670;7.788;2022-09-17T18:28:59;11.10;36.80
11009;DHT22;5557;51.670;7.788;2022-09-17T18:31:33;11.00;34.70
11009;DHT22;5557;51.670;7.788;2022-09-17T18:34:03;11.00;35.20
11009;DHT22;5557;51.670;7.788;2022-09-17T18:36:32;11.00;35.40
11009;DHT22;5557;51.670;7.788;2022-09-17T18:39:01;11.10;34.50
11009;DHT22;5557;51.670;7.788;2022-09-17T18:41:48;11.10;33.20
11009;DHT22;5557;51.670;7.788;2022-09-17T18:44:15;11.20;30.20
11009;DHT22;5557;51.670;7.788;2022-09-17T18:46:44;11.30;29.30